createdAt,value
2018-12-08T00:01:19.837Z,18.67
2018-12-08T00:03:48.807Z,19.27
2018-12-08T00:06:18.048Z,33.67
2018-12-08T00:08:47.515Z,20.30
2018-12-08T00:11:16.913Z,25.17
2018-12-08T00:13:46.207Z,16.48
2018-12-08T00:16:15.182Z,20.10
2018-12-08T00:18:43.996Z,20.90
2018-12-08T00:21:13.259Z,19.70
2018-12-08T00:23:42.608Z,23.47
2018-12-08T00:26:11.518Z,23.17
2018-12-08T00:28:40.708Z,20.07
2018-12-08T00:31:15.295Z,20.20
2018-12-08T00:33:44.527Z,21.50
2018-12-08T00:36:14.064Z,22.30
2018-12-08T00:38:43.427Z,22.87
2018-12-08T00:41:12.734Z,21.85
2018-12-08T00:43:41.678Z,25.00
2018-12-08T00:46:10.513Z,22.07
2018-12-08T00:48:39.951Z,21.50
2018-12-08T00:51:09.270Z,18.77
2018-12-08T00:53:38.673Z,15.37
2018-12-08T00:56:07.990Z,23.70
2018-12-08T00:58:37.292Z,18.10
2018-12-08T01:01:13.228Z,23.77
2018-12-08T01:03:42.571Z,21.13
2018-12-08T01:06:13.291Z,27.87
2018-12-08T01:08:42.615Z,23.00
2018-12-08T01:11:11.554Z,17.30
2018-12-08T01:13:40.779Z,14.03
2018-12-08T01:16:09.770Z,13.97
2018-12-08T01:18:38.967Z,15.70
2018-12-08T01:21:08.278Z,21.40
2018-12-08T01:23:37.606Z,19.27
2018-12-08T01:26:06.973Z,17.37
2018-12-08T01:28:36.299Z,20.50
2018-12-08T01:31:05.191Z,24.57
2018-12-08T01:33:34.031Z,15.13
2018-12-08T01:36:03.262Z,19.67
2018-12-08T01:38:32.647Z,25.03
2018-12-08T01:41:02.092Z,18.27
2018-12-08T01:43:31.436Z,28.53
2018-12-08T01:46:00.383Z,22.90
2018-12-08T01:48:29.599Z,17.80
2018-12-08T01:50:58.940Z,26.03
2018-12-08T01:53:28.285Z,18.07
2018-12-08T01:55:57.726Z,20.03
2018-12-08T01:58:27.117Z,21.60
2018-12-08T02:00:56.532Z,24.30
2018-12-08T02:03:25.852Z,15.77
2018-12-08T02:05:55.315Z,23.23
2018-12-08T02:08:24.675Z,25.20
2018-12-08T02:10:53.992Z,20.03
2018-12-08T02:13:23.303Z,20.20
2018-12-08T02:15:52.722Z,14.50
2018-12-08T02:18:22.082Z,19.50
2018-12-08T02:20:51.394Z,19.27
2018-12-08T02:23:20.354Z,15.70
2018-12-08T02:25:49.586Z,23.83
2018-12-08T02:28:18.925Z,23.83
2018-12-08T02:30:48.384Z,20.97
2018-12-08T02:33:17.339Z,23.17
2018-12-08T02:35:46.561Z,23.77
2018-12-08T02:38:16.340Z,20.87
2018-12-08T02:40:45.729Z,15.87
2018-12-08T02:43:15.075Z,26.77
2018-12-08T02:45:44.363Z,18.53
2018-12-08T02:48:13.655Z,25.77
2018-12-08T02:50:42.949Z,19.33
2018-12-08T02:53:12.279Z,20.17
2018-12-08T02:55:41.740Z,17.13
2018-12-08T02:58:10.775Z,23.03
2018-12-08T03:00:40.024Z,22.60
2018-12-08T03:03:09.422Z,25.83
2018-12-08T03:05:38.786Z,17.37
2018-12-08T03:08:08.106Z,23.93
2018-12-08T03:10:37.449Z,24.57
2018-12-08T03:13:06.755Z,24.57
2018-12-08T03:15:36.052Z,17.70
2018-12-08T03:18:05.351Z,19.33
2018-12-08T03:20:34.652Z,20.05
2018-12-08T03:23:03.514Z,23.70
2018-12-08T03:28:26.506Z,24.53
2018-12-08T03:30:55.853Z,23.97
2018-12-08T03:33:25.598Z,21.57
2018-12-08T03:35:54.875Z,19.17
2018-12-08T03:38:24.145Z,23.83
2018-12-08T03:40:53.396Z,18.33
2018-12-08T03:43:22.663Z,20.13
2018-12-08T03:45:51.583Z,20.83
2018-12-08T03:48:20.799Z,19.53
2018-12-08T03:50:49.725Z,23.10
2018-12-08T03:53:18.990Z,20.93
2018-12-08T03:55:48.262Z,21.07
2018-12-08T03:58:17.559Z,22.30
2018-12-08T04:00:46.866Z,18.77
2018-12-08T04:03:16.155Z,28.87
2018-12-08T04:05:45.089Z,19.07
2018-12-08T04:08:14.370Z,21.23
2018-12-08T04:10:43.699Z,20.23
2018-12-08T04:13:13.053Z,17.93
2018-12-08T04:15:42.260Z,22.97
2018-12-08T04:18:11.504Z,24.73
2018-12-08T04:20:40.442Z,29.13
2018-12-08T04:23:09.650Z,19.63
2018-12-08T04:25:38.947Z,30.15
2018-12-08T04:28:08.275Z,19.50
2018-12-08T04:30:37.671Z,26.97
2018-12-08T04:33:06.944Z,35.37
2018-12-08T04:35:36.271Z,21.73
2018-12-08T04:38:05.567Z,20.13
2018-12-08T04:40:34.928Z,24.40
2018-12-08T04:43:04.287Z,18.90
2018-12-08T04:45:33.653Z,15.83
2018-12-08T04:48:03.012Z,25.37
2018-12-08T04:50:31.978Z,20.40
2018-12-08T04:53:01.209Z,20.20
2018-12-08T04:55:30.096Z,23.60
2018-12-08T04:57:59.325Z,24.73
2018-12-08T05:00:28.760Z,19.80
2018-12-08T05:02:57.670Z,29.10
2018-12-08T05:05:27.020Z,23.30
2018-12-08T05:07:56.938Z,24.53
2018-12-08T05:10:26.115Z,29.97
2018-12-08T05:12:55.400Z,21.97
2018-12-08T05:15:24.614Z,25.53
2018-12-08T05:17:53.961Z,23.47
2018-12-08T05:20:22.907Z,24.00
2018-12-08T05:22:51.766Z,23.57
2018-12-08T05:25:21.057Z,25.13
2018-12-08T05:27:50.028Z,21.83
2018-12-08T05:30:19.321Z,25.57
2018-12-08T05:32:48.739Z,20.67
2018-12-08T05:35:18.053Z,23.23
2018-12-08T05:37:47.341Z,14.90
2018-12-08T05:40:16.672Z,21.87
2018-12-08T05:42:46.045Z,21.50
2018-12-08T05:45:15.365Z,22.13
2018-12-08T05:47:44.683Z,22.63
2018-12-08T05:50:14.043Z,24.03
2018-12-08T05:52:43.355Z,24.83
2018-12-08T05:55:12.757Z,29.47
2018-12-08T05:57:42.139Z,22.73
2018-12-08T06:00:16.759Z,23.53
2018-12-08T06:02:45.983Z,20.77
2018-12-08T06:05:15.358Z,15.93
2018-12-08T06:07:44.615Z,26.83
2018-12-08T06:10:13.907Z,23.13
2018-12-08T06:12:43.367Z,17.07
2018-12-08T06:15:12.780Z,19.97
2018-12-08T06:17:42.103Z,19.20
2018-12-08T06:20:11.047Z,24.73
2018-12-08T06:22:40.268Z,19.57
2018-12-08T06:25:15.324Z,20.07
2018-12-08T06:27:57.382Z,22.03
2018-12-08T06:30:26.841Z,23.60
2018-12-08T06:32:56.149Z,19.90
2018-12-08T06:35:25.434Z,24.93
2018-12-08T06:37:54.800Z,19.23
2018-12-08T06:40:29.215Z,22.90
2018-12-08T06:42:55.354Z,23.20
2018-12-08T06:45:25.091Z,28.97
2018-12-08T06:47:54.389Z,21.13
2018-12-08T06:50:24.096Z,27.37
2018-12-08T06:52:53.399Z,22.70
2018-12-08T06:55:22.748Z,21.20
2018-12-08T06:57:52.047Z,20.40
2018-12-08T07:00:21.368Z,22.03
2018-12-08T07:02:50.672Z,26.53
2018-12-08T07:05:20.003Z,21.73
2018-12-08T07:07:49.377Z,25.70
2018-12-08T07:10:18.669Z,31.07
2018-12-08T07:12:47.906Z,26.37
2018-12-08T07:15:17.244Z,25.23
2018-12-08T07:17:46.539Z,23.60
2018-12-08T07:20:15.868Z,25.53
2018-12-08T07:22:45.159Z,25.03
2018-12-08T07:25:14.480Z,24.70
2018-12-08T07:27:43.823Z,16.75
2018-12-08T07:30:13.172Z,22.63
2018-12-08T07:32:42.535Z,29.87
2018-12-08T07:35:11.484Z,23.77
2018-12-08T07:37:40.678Z,22.10
2018-12-08T07:40:09.611Z,25.23
2018-12-08T07:42:38.440Z,30.70
2018-12-08T07:45:08.308Z,25.63
2018-12-08T07:47:37.671Z,30.80
2018-12-08T07:50:09.216Z,27.83
2018-12-08T07:52:38.551Z,29.27
2018-12-08T07:55:08.348Z,24.53
2018-12-08T07:57:38.329Z,22.30
2018-12-08T08:00:11.352Z,25.73
2018-12-08T08:02:41.235Z,24.63
2018-12-08T08:05:10.991Z,23.90
2018-12-08T08:07:40.547Z,27.67
2018-12-08T08:10:10.811Z,39.50
2018-12-08T08:12:40.172Z,26.33
2018-12-08T08:15:10.525Z,34.80
2018-12-08T08:17:39.914Z,27.20
2018-12-08T08:20:11.102Z,26.57
2018-12-08T08:22:40.535Z,24.20
2018-12-08T08:25:11.581Z,27.00
2018-12-08T08:27:40.808Z,29.80
2018-12-08T08:30:11.647Z,23.83
2018-12-08T08:32:40.949Z,28.77
2018-12-08T08:35:10.267Z,27.90
2018-12-08T08:37:39.654Z,26.70
2018-12-08T08:40:10.793Z,31.77
2018-12-08T08:42:40.195Z,32.57
2018-12-08T08:45:09.943Z,32.63
2018-12-08T08:47:38.979Z,30.40
2018-12-08T08:50:10.414Z,31.80
2018-12-08T08:52:40.320Z,22.42
2018-12-08T08:55:09.684Z,42.03
2018-12-08T08:57:39.007Z,29.83
2018-12-08T09:00:08.954Z,28.77
2018-12-08T09:02:37.916Z,25.17
2018-12-08T09:05:08.355Z,29.10
2018-12-08T09:07:37.429Z,28.35
2018-12-08T09:10:09.992Z,35.43
2018-12-08T09:12:39.370Z,30.00
2018-12-08T09:15:09.416Z,24.77
2018-12-08T09:17:38.396Z,32.80
2018-12-08T09:20:10.326Z,28.23
2018-12-08T09:22:40.169Z,25.03
2018-12-08T09:25:10.439Z,28.50
2018-12-08T09:27:39.806Z,27.62
2018-12-08T09:30:11.036Z,30.57
2018-12-08T09:32:40.532Z,27.37
2018-12-08T09:35:10.049Z,33.27
2018-12-08T09:37:39.479Z,30.63
2018-12-08T09:40:08.549Z,24.30
2018-12-08T09:42:37.422Z,28.70
2018-12-08T09:45:07.311Z,25.33
2018-12-08T09:47:36.288Z,23.73
2018-12-08T09:50:05.747Z,31.03
2018-12-08T09:52:35.087Z,28.00
2018-12-08T09:55:04.333Z,35.27
2018-12-08T09:57:33.590Z,26.23
2018-12-08T10:00:02.720Z,23.60
2018-12-08T10:02:32.000Z,20.10
2018-12-08T10:05:01.594Z,30.73
2018-12-08T10:07:30.648Z,26.13
2018-12-08T10:09:59.894Z,28.20
2018-12-08T10:12:29.242Z,24.57
2018-12-08T10:14:59.185Z,24.80
2018-12-08T10:17:28.570Z,26.33
2018-12-08T10:19:57.879Z,23.53
2018-12-08T10:22:27.903Z,27.07
2018-12-08T10:24:57.372Z,26.67
2018-12-08T10:27:26.434Z,25.17
2018-12-08T10:29:55.621Z,31.20
2018-12-08T10:32:24.595Z,26.17
2018-12-08T10:34:53.891Z,30.40
2018-12-08T10:37:22.932Z,28.67
2018-12-08T10:39:51.847Z,27.97
2018-12-08T10:42:21.039Z,27.15
2018-12-08T10:44:50.438Z,26.37
2018-12-08T10:47:20.255Z,19.17
2018-12-08T10:49:49.654Z,24.07
2018-12-08T10:52:19.062Z,22.30
2018-12-08T10:54:47.946Z,28.60
2018-12-08T10:57:16.832Z,29.13
2018-12-08T10:59:45.999Z,30.43
2018-12-08T11:02:20.288Z,25.50
2018-12-08T11:04:49.552Z,37.17
2018-12-08T11:07:19.017Z,26.70
2018-12-08T11:09:48.587Z,30.67
2018-12-08T11:12:17.501Z,39.93
2018-12-08T11:14:46.819Z,35.90
2018-12-08T11:17:16.271Z,37.77
2018-12-08T11:19:45.623Z,30.93
2018-12-08T11:22:14.747Z,39.53
2018-12-08T11:24:44.011Z,30.77
2018-12-08T11:27:13.430Z,36.67
2018-12-08T11:29:42.803Z,30.83
2018-12-08T11:32:12.127Z,26.30
2018-12-08T11:34:41.109Z,34.80
2018-12-08T11:37:10.403Z,25.55
2018-12-08T11:39:39.704Z,34.17
2018-12-08T11:42:09.024Z,28.17
2018-12-08T11:44:38.659Z,27.70
2018-12-08T11:47:07.523Z,28.47
2018-12-08T11:49:36.704Z,35.37
2018-12-08T11:52:06.166Z,30.10
2018-12-08T11:54:35.275Z,27.30
2018-12-08T11:57:04.158Z,20.77
2018-12-08T11:59:33.186Z,31.70
2018-12-08T12:02:03.541Z,24.60
2018-12-08T12:04:32.561Z,28.63
2018-12-08T12:07:04.113Z,21.57
2018-12-08T12:09:33.077Z,19.57
2018-12-08T12:12:03.305Z,27.57
2018-12-08T12:14:48.101Z,32.73
2018-12-08T12:17:17.577Z,33.43
2018-12-08T12:19:46.943Z,32.90
2018-12-08T12:22:16.386Z,25.20
2018-12-08T12:24:45.313Z,28.42
2018-12-08T12:27:14.344Z,45.20
2018-12-08T12:29:44.262Z,32.77
2018-12-08T12:32:13.560Z,26.63
2018-12-08T12:34:43.714Z,35.60
2018-12-08T12:37:14.905Z,34.53
2018-12-08T12:39:45.353Z,28.97
2018-12-08T12:42:14.298Z,24.70
2018-12-08T12:44:43.572Z,29.13
2018-12-08T12:47:13.443Z,32.30
2018-12-08T12:49:42.866Z,22.93
2018-12-08T12:52:12.176Z,29.40
2018-12-08T12:54:41.555Z,23.07
2018-12-08T12:57:10.923Z,31.27
2018-12-08T12:59:40.005Z,24.73
2018-12-08T13:02:08.862Z,28.23
2018-12-08T13:04:37.667Z,22.80
2018-12-08T13:07:06.531Z,20.83
2018-12-08T13:09:35.768Z,25.88
2018-12-08T13:12:04.815Z,15.70
2018-12-08T13:14:34.075Z,17.52
2018-12-08T13:17:03.488Z,21.60
2018-12-08T13:19:32.461Z,21.60
2018-12-08T13:22:01.436Z,23.17
2018-12-08T13:24:31.901Z,25.68
2018-12-08T13:27:01.577Z,29.03
2018-12-08T13:29:30.550Z,25.43
2018-12-08T13:31:59.821Z,20.70
2018-12-08T13:34:30.134Z,20.70
2018-12-08T13:36:59.462Z,17.53
2018-12-08T13:39:28.614Z,17.00
2018-12-08T13:41:57.516Z,9.67
2018-12-08T13:44:31.947Z,17.30
2018-12-08T13:47:01.155Z,20.90
2018-12-08T13:49:30.091Z,19.12
2018-12-08T13:51:59.353Z,22.00
2018-12-08T13:55:00.384Z,20.17
2018-12-08T13:57:29.668Z,16.53
2018-12-08T13:59:59.064Z,21.10
2018-12-08T14:02:28.483Z,23.43
2018-12-08T14:04:57.340Z,21.53
2018-12-08T14:07:26.354Z,16.30
2018-12-08T14:09:55.633Z,16.83
2018-12-08T14:12:25.007Z,15.48
2018-12-08T14:14:54.317Z,21.73
2018-12-08T14:17:23.535Z,14.20
2018-12-08T14:19:53.040Z,20.33
2018-12-08T14:22:22.440Z,19.90
2018-12-08T14:24:52.244Z,32.30
2018-12-08T14:27:21.940Z,31.37
2018-12-08T14:29:50.982Z,30.27
2018-12-08T14:32:20.632Z,31.83
2018-12-08T14:34:49.606Z,24.93
2018-12-08T14:37:18.471Z,25.77
2018-12-08T14:39:47.405Z,24.23
2018-12-08T14:42:16.723Z,21.67
2018-12-08T14:44:46.065Z,20.10
2018-12-08T14:47:15.428Z,21.50
2018-12-08T14:49:45.031Z,27.30
2018-12-08T14:52:15.263Z,24.77
2018-12-08T14:54:44.665Z,17.00
2018-12-08T14:57:14.082Z,14.87
2018-12-08T14:59:44.126Z,16.63
2018-12-08T15:02:13.380Z,13.63
2018-12-08T15:04:42.764Z,17.23
2018-12-08T15:07:12.408Z,22.70
2018-12-08T15:09:41.491Z,23.60
2018-12-08T15:12:11.972Z,27.93
2018-12-08T15:14:41.425Z,31.10
2018-12-08T15:17:11.251Z,31.77
2018-12-08T15:19:41.052Z,29.93
2018-12-08T15:22:10.080Z,35.57
2018-12-08T15:24:38.961Z,36.55
2018-12-08T15:27:08.347Z,29.80
2018-12-08T15:29:37.363Z,27.53
2018-12-08T15:32:06.600Z,31.30
2018-12-08T15:34:35.908Z,33.97
2018-12-08T15:37:05.340Z,44.17
2018-12-08T15:39:34.671Z,40.73
2018-12-08T15:42:04.018Z,48.20
2018-12-08T15:44:33.299Z,34.17
2018-12-08T15:47:02.772Z,35.93
2018-12-08T15:49:31.660Z,43.20
2018-12-08T15:52:00.444Z,35.90
2018-12-08T15:54:29.613Z,25.50
2018-12-08T15:56:58.951Z,40.27
2018-12-08T15:59:27.806Z,23.07
2018-12-08T16:01:57.008Z,30.13
2018-12-08T16:04:25.883Z,21.20
2018-12-08T16:06:55.190Z,22.07
2018-12-08T16:09:24.127Z,29.23
2018-12-08T16:11:53.284Z,23.80
2018-12-08T16:14:22.155Z,21.03
2018-12-08T16:16:51.336Z,32.77
2018-12-08T16:19:20.278Z,25.97
2018-12-08T16:21:49.435Z,21.80
2018-12-08T16:24:18.323Z,19.37
2018-12-08T16:26:47.491Z,19.23
2018-12-08T16:29:16.426Z,25.40
2018-12-08T16:31:45.255Z,26.63
2018-12-08T16:34:14.691Z,28.13
2018-12-08T16:36:43.618Z,22.40
2018-12-08T16:39:12.519Z,28.07
2018-12-08T16:41:41.811Z,24.20
2018-12-08T16:44:11.076Z,25.00
2018-12-08T16:46:40.363Z,34.53
2018-12-08T16:49:09.331Z,28.73
2018-12-08T16:51:38.287Z,23.73
2018-12-08T16:54:07.520Z,31.90
2018-12-08T16:56:37.318Z,31.90
2018-12-08T16:59:06.138Z,29.13
2018-12-08T17:01:35.393Z,33.50
2018-12-08T17:04:04.335Z,27.87
2018-12-08T17:06:33.555Z,19.73
2018-12-08T17:09:03.230Z,21.10
2018-12-08T17:11:32.143Z,22.40
2018-12-08T17:14:01.291Z,20.10
2018-12-08T17:16:30.599Z,19.73
2018-12-08T17:18:59.916Z,22.57
2018-12-08T17:21:28.976Z,22.90
2018-12-08T17:23:58.317Z,30.27
2018-12-08T17:26:27.361Z,34.45
2018-12-08T17:28:56.178Z,24.87
2018-12-08T17:31:25.047Z,24.73
2018-12-08T17:33:54.340Z,34.10
2018-12-08T17:36:23.795Z,34.40
2018-12-08T17:38:53.119Z,35.77
2018-12-08T17:41:22.558Z,33.27
2018-12-08T17:43:51.880Z,38.93
2018-12-08T17:46:21.283Z,29.63
2018-12-08T17:48:50.350Z,29.77
2018-12-08T17:51:20.037Z,25.30
2018-12-08T17:53:48.908Z,29.43
2018-12-08T17:56:18.428Z,31.87
2018-12-08T17:58:47.839Z,36.23
2018-12-08T18:01:17.603Z,26.23
2018-12-08T18:03:46.951Z,30.03
2018-12-08T18:06:16.479Z,26.27
2018-12-08T18:08:45.555Z,24.87
2018-12-08T18:11:15.042Z,31.83
2018-12-08T18:13:44.385Z,26.83
2018-12-08T18:16:14.993Z,28.03
2018-12-08T18:18:43.966Z,28.40
2018-12-08T18:21:13.266Z,19.90
2018-12-08T18:23:42.627Z,24.07
2018-12-08T18:26:11.618Z,27.20
2018-12-08T18:28:40.943Z,31.13
2018-12-08T18:31:09.965Z,36.33
2018-12-08T18:33:38.916Z,31.77
2018-12-08T18:36:07.799Z,34.53
2018-12-08T18:38:37.168Z,22.83
2018-12-08T18:41:06.673Z,25.43
2018-12-08T18:43:35.954Z,26.50
2018-12-08T18:46:05.519Z,28.87
2018-12-08T18:48:34.761Z,34.13
2018-12-08T18:51:04.292Z,37.77
2018-12-08T18:53:33.904Z,28.47
2018-12-08T18:56:03.297Z,34.23
2018-12-08T18:58:32.729Z,38.05
2018-12-08T19:01:01.940Z,35.50
2018-12-08T19:03:31.337Z,31.90
2018-12-08T19:06:00.668Z,29.73
2018-12-08T19:08:30.006Z,28.57
2018-12-08T19:10:58.990Z,27.93
2018-12-08T19:13:27.838Z,22.23
2018-12-08T19:15:57.019Z,26.33
2018-12-08T19:18:26.140Z,25.87
2018-12-08T19:20:55.046Z,25.07
2018-12-08T19:23:24.469Z,27.43
2018-12-08T19:25:53.973Z,22.70
2018-12-08T19:28:23.559Z,27.57
2018-12-08T19:30:52.824Z,25.50
2018-12-08T19:33:21.880Z,21.97
2018-12-08T19:35:50.710Z,23.33
2018-12-08T19:38:20.379Z,26.33
2018-12-08T19:40:49.334Z,25.70
2018-12-08T19:43:22.811Z,18.53
2018-12-08T19:45:51.922Z,20.32
2018-12-08T19:48:20.888Z,29.40
2018-12-08T19:50:49.836Z,24.23
2018-12-08T19:53:18.698Z,21.07
2018-12-08T19:55:47.521Z,30.37
2018-12-08T19:58:16.752Z,27.30
2018-12-08T20:00:46.305Z,21.70
2018-12-08T20:03:15.191Z,29.67
2018-12-08T20:05:44.351Z,29.23
2018-12-08T20:08:13.262Z,28.23
2018-12-08T20:10:42.584Z,25.53
2018-12-08T20:13:11.539Z,27.63
2018-12-08T20:15:40.385Z,25.07
2018-12-08T20:18:09.705Z,31.20
2018-12-08T20:20:38.742Z,24.83
2018-12-08T20:23:07.658Z,34.93
2018-12-08T20:25:36.610Z,32.13
2018-12-08T20:28:05.873Z,36.37
2018-12-08T20:30:34.926Z,31.77
2018-12-08T20:33:04.184Z,40.13
2018-12-08T20:35:33.182Z,39.73
2018-12-08T20:38:02.059Z,45.13
2018-12-08T20:40:30.986Z,40.43
2018-12-08T20:43:00.293Z,40.67
2018-12-08T20:45:29.469Z,50.05
2018-12-08T20:48:00.812Z,43.27
2018-12-08T20:50:29.819Z,45.60
2018-12-08T20:52:59.209Z,41.73
2018-12-08T20:55:28.919Z,38.60
2018-12-08T20:57:58.221Z,38.30
2018-12-08T21:00:27.652Z,31.13
2018-12-08T21:02:56.700Z,35.27
2018-12-08T21:05:26.794Z,38.80
2018-12-08T21:07:56.204Z,46.37
2018-12-08T21:10:25.571Z,38.60
2018-12-08T21:12:54.635Z,40.97
2018-12-08T21:15:23.664Z,33.18
2018-12-08T21:17:53.029Z,40.40
2018-12-08T21:20:22.527Z,32.83
2018-12-08T21:22:51.459Z,32.80
2018-12-08T21:25:20.782Z,30.27
2018-12-08T21:27:49.779Z,31.23
2018-12-08T21:30:19.111Z,26.77
2018-12-08T21:32:48.059Z,26.73
2018-12-08T21:35:16.969Z,33.27
2018-12-08T21:37:46.255Z,30.23
2018-12-08T21:40:21.592Z,25.20
2018-12-08T21:42:50.460Z,15.93
2018-12-08T21:45:19.841Z,24.52
2018-12-08T21:47:48.879Z,23.97
2018-12-08T21:50:17.797Z,26.23
2018-12-08T21:52:47.051Z,19.50
2018-12-08T21:55:16.216Z,11.93
2018-12-08T21:57:45.302Z,14.60
2018-12-08T22:00:14.704Z,16.63
2018-12-08T22:02:43.733Z,11.20
2018-12-08T22:05:12.626Z,13.43
2018-12-08T22:07:41.574Z,25.90
2018-12-08T22:10:10.446Z,13.20
2018-12-08T22:12:39.350Z,12.80
2018-12-08T22:15:18.088Z,15.60
2018-12-08T22:17:47.402Z,18.17
2018-12-08T22:20:16.342Z,14.67
2018-12-08T22:22:45.159Z,17.87
2018-12-08T22:25:14.400Z,21.50
2018-12-08T22:27:43.303Z,27.83
2018-12-08T22:30:12.203Z,22.47
2018-12-08T22:32:41.240Z,23.57
2018-12-08T22:35:10.634Z,22.00
2018-12-08T22:37:40.047Z,31.30
2018-12-08T22:40:09.186Z,28.63
2018-12-08T22:42:38.403Z,30.60
2018-12-08T22:45:07.915Z,31.43
2018-12-08T22:47:37.265Z,34.27
2018-12-08T22:50:07.759Z,30.43
2018-12-08T22:52:37.307Z,27.43
2018-12-08T22:55:06.630Z,35.83
2018-12-08T22:57:35.971Z,32.77
2018-12-08T23:00:13.147Z,30.07
2018-12-08T23:02:51.160Z,29.77
2018-12-08T23:05:20.452Z,27.37
2018-12-08T23:07:49.780Z,29.33
2018-12-08T23:10:19.501Z,28.30
2018-12-08T23:12:48.779Z,27.90
2018-12-08T23:15:18.071Z,28.30
2018-12-08T23:17:47.426Z,29.80
2018-12-08T23:20:16.796Z,33.10
2018-12-08T23:22:46.148Z,35.57
2018-12-08T23:25:15.467Z,35.00
2018-12-08T23:27:44.999Z,26.60
2018-12-08T23:30:14.403Z,26.90
2018-12-08T23:32:43.449Z,32.90
2018-12-08T23:35:12.705Z,30.47
2018-12-08T23:37:42.692Z,33.33
2018-12-08T23:40:11.611Z,34.00
2018-12-08T23:42:40.787Z,19.20
2018-12-08T23:45:10.527Z,28.00
2018-12-08T23:47:39.474Z,25.10
2018-12-08T23:50:10.000Z,29.30
2018-12-08T23:52:39.236Z,23.07
2018-12-08T23:55:08.599Z,20.40
2018-12-08T23:57:37.870Z,16.93
